createdAt,value
2019-04-04T00:00:38.290Z,31.03
2019-04-04T00:03:07.864Z,29.47
2019-04-04T00:05:37.414Z,31.67
2019-04-04T00:08:07.615Z,31.87
2019-04-04T00:10:36.947Z,31.27
2019-04-04T00:13:06.199Z,31.13
2019-04-04T00:15:38.236Z,30.20
2019-04-04T00:18:09.782Z,31.80
2019-04-04T00:20:42.835Z,31.73
2019-04-04T00:23:13.174Z,30.13
2019-04-04T00:25:43.846Z,30.30
2019-04-04T00:28:32.786Z,30.63
2019-04-04T00:31:02.356Z,30.87
2019-04-04T00:33:31.911Z,29.60
2019-04-04T00:36:02.769Z,28.90
2019-04-04T00:38:32.639Z,29.33
2019-04-04T00:41:01.899Z,29.60
2019-04-04T00:43:39.799Z,29.77
2019-04-04T00:46:29.006Z,30.00
2019-04-04T00:49:06.400Z,28.83
2019-04-04T00:51:51.629Z,29.90
2019-04-04T00:54:23.641Z,31.80
2019-04-04T00:57:09.829Z,30.37
2019-04-04T00:59:39.487Z,29.27
2019-04-04T01:02:09.059Z,28.43
2019-04-04T01:04:38.694Z,28.57
2019-04-04T01:07:08.351Z,29.97
2019-04-04T01:09:37.828Z,29.47
2019-04-04T01:12:07.425Z,30.60
2019-04-04T01:14:36.978Z,30.30
2019-04-04T01:17:06.548Z,30.00
2019-04-04T01:19:36.115Z,30.10
2019-04-04T01:22:05.682Z,29.33
2019-04-04T01:24:35.405Z,29.00
2019-04-04T01:27:06.347Z,28.80
2019-04-04T01:29:36.182Z,28.70
2019-04-04T01:32:05.765Z,29.43
2019-04-04T01:34:35.687Z,28.93
2019-04-04T01:37:05.367Z,28.13
2019-04-04T01:39:34.940Z,26.60
2019-04-04T01:42:05.064Z,27.23
2019-04-04T01:44:35.926Z,28.10
2019-04-04T01:47:05.551Z,27.73
2019-04-04T01:49:35.136Z,27.40
2019-04-04T01:52:04.691Z,28.63
2019-04-04T01:54:34.270Z,27.60
2019-04-04T01:57:03.828Z,28.07
2019-04-04T01:59:33.917Z,26.87
2019-04-04T02:02:03.771Z,28.93
2019-04-04T02:04:33.419Z,28.03
2019-04-04T02:07:02.990Z,29.87
2019-04-04T02:09:34.626Z,29.80
2019-04-04T02:12:03.774Z,27.67
2019-04-04T02:14:33.332Z,27.60
2019-04-04T02:17:02.913Z,29.53
2019-04-04T02:19:32.477Z,27.70
2019-04-04T02:22:02.042Z,29.73
2019-04-04T02:24:32.660Z,28.27
2019-04-04T02:27:02.225Z,27.30
2019-04-04T02:29:31.791Z,27.47
2019-04-04T02:32:02.940Z,27.00
2019-04-04T02:34:32.508Z,27.87
2019-04-04T02:37:02.219Z,27.80
2019-04-04T02:39:32.671Z,28.03
2019-04-04T02:42:02.995Z,27.87
2019-04-04T02:44:33.152Z,27.13
2019-04-04T02:47:03.060Z,26.87
2019-04-04T02:49:32.646Z,25.80
2019-04-04T02:52:02.380Z,26.00
2019-04-04T02:54:32.005Z,26.23
2019-04-04T02:57:01.614Z,28.63
2019-04-04T02:59:31.179Z,27.47
2019-04-04T03:02:04.808Z,28.17
2019-04-04T03:04:32.084Z,28.63
2019-04-04T03:07:01.694Z,30.03
2019-04-04T03:09:31.271Z,28.43
2019-04-04T03:12:00.864Z,27.77
2019-04-04T03:14:30.423Z,28.77
2019-04-04T03:17:00.143Z,27.83
2019-04-04T03:19:29.682Z,26.47
2019-04-04T03:21:59.242Z,24.83
2019-04-04T03:24:28.833Z,26.03
2019-04-04T03:26:58.393Z,28.00
2019-04-04T03:29:27.979Z,28.10
2019-04-04T03:31:57.578Z,28.57
2019-04-04T03:34:27.138Z,28.83
2019-04-04T03:36:56.727Z,28.10
2019-04-04T03:39:26.286Z,27.90
2019-04-04T03:41:55.848Z,28.20
2019-04-04T03:44:25.399Z,27.03
2019-04-04T03:46:55.043Z,28.90
2019-04-04T03:49:24.831Z,29.13
2019-04-04T03:51:54.421Z,29.53
2019-04-04T03:54:25.745Z,28.63
2019-04-04T03:56:55.273Z,27.97
2019-04-04T03:59:24.880Z,27.97
2019-04-04T04:01:54.420Z,28.73
2019-04-04T04:04:26.838Z,29.33
2019-04-04T04:06:55.193Z,27.53
2019-04-04T04:09:26.359Z,28.73
2019-04-04T04:11:56.157Z,28.33
2019-04-04T04:14:25.742Z,28.03
2019-04-04T04:16:55.331Z,28.47
2019-04-04T04:19:30.015Z,26.93
2019-04-04T04:21:56.887Z,27.97
2019-04-04T04:24:29.217Z,28.47
2019-04-04T04:26:57.702Z,29.00
2019-04-04T04:29:29.902Z,28.20
2019-04-04T04:31:58.482Z,27.93
2019-04-04T04:34:32.817Z,28.67
2019-04-04T04:36:59.270Z,27.67
2019-04-04T04:39:28.859Z,27.47
2019-04-04T04:41:58.435Z,26.63
2019-04-04T04:44:28.007Z,27.63
2019-04-04T04:46:57.627Z,27.10
2019-04-04T04:49:27.277Z,27.43
2019-04-04T04:51:56.843Z,27.57
2019-04-04T04:54:26.411Z,28.70
2019-04-04T04:56:56.084Z,27.30
2019-04-04T04:59:25.684Z,27.73
2019-04-04T05:01:55.235Z,26.83
2019-04-04T05:04:27.840Z,26.63
2019-04-04T05:06:55.989Z,26.97
2019-04-04T05:09:25.606Z,28.40
2019-04-04T05:11:55.173Z,26.70
2019-04-04T05:14:24.743Z,26.47
2019-04-04T05:16:54.328Z,27.23
2019-04-04T05:19:23.898Z,26.57
2019-04-04T05:21:53.487Z,26.13
2019-04-04T05:24:23.077Z,26.53
2019-04-04T05:26:52.674Z,29.23
2019-04-04T05:29:22.227Z,28.77
2019-04-04T05:31:51.941Z,29.30
2019-04-04T05:34:21.505Z,28.27
2019-04-04T05:36:51.080Z,28.10
2019-04-04T05:39:20.885Z,27.67
2019-04-04T05:41:50.482Z,28.47
2019-04-04T05:44:20.055Z,26.53
2019-04-04T05:46:51.932Z,26.73
2019-04-04T05:49:20.825Z,26.90
2019-04-04T05:51:50.540Z,26.37
2019-04-04T05:54:20.113Z,26.73
2019-04-04T05:56:49.862Z,30.67
2019-04-04T05:59:19.413Z,28.37
2019-04-04T06:01:49.008Z,26.30
2019-04-04T06:04:19.511Z,27.27
2019-04-04T06:06:51.503Z,24.77
2019-04-04T06:09:21.265Z,25.53
2019-04-04T06:11:52.752Z,25.10
2019-04-04T06:14:34.068Z,24.27
2019-04-04T06:17:05.109Z,25.23
2019-04-04T06:19:34.831Z,24.47
2019-04-04T06:22:04.550Z,24.53
2019-04-04T06:24:34.128Z,24.93
2019-04-04T06:27:03.739Z,23.60
2019-04-04T06:29:33.301Z,25.10
2019-04-04T06:32:02.868Z,24.90
2019-04-04T06:34:32.786Z,23.90
2019-04-04T06:37:02.351Z,25.23
2019-04-04T06:39:33.047Z,23.67
2019-04-04T06:42:03.306Z,24.17
2019-04-04T06:44:33.599Z,24.07
2019-04-04T06:47:03.186Z,24.80
2019-04-04T06:49:33.235Z,23.47
2019-04-04T06:52:04.002Z,24.77
2019-04-04T06:54:33.573Z,24.17
2019-04-04T06:57:03.998Z,24.77
2019-04-04T06:59:34.593Z,24.17
2019-04-04T07:02:05.360Z,24.13
2019-04-04T07:04:36.035Z,25.53
2019-04-04T07:07:06.039Z,25.27
2019-04-04T07:09:37.263Z,25.33
2019-04-04T07:12:20.293Z,23.17
2019-04-04T07:14:45.723Z,22.83
2019-04-04T07:17:10.578Z,23.87
2019-04-04T07:19:40.090Z,24.07
2019-04-04T07:22:09.663Z,23.20
2019-04-04T07:24:39.343Z,22.70
2019-04-04T07:27:08.962Z,22.37
2019-04-04T07:29:38.540Z,21.77
2019-04-04T07:32:09.549Z,21.40
2019-04-04T07:34:39.334Z,21.00
2019-04-04T07:37:08.922Z,21.13
2019-04-04T07:39:38.569Z,20.77
2019-04-04T07:42:08.142Z,20.77
2019-04-04T07:44:37.736Z,20.80
2019-04-04T07:47:07.407Z,20.87
2019-04-04T07:49:40.005Z,21.07
2019-04-04T07:52:08.203Z,20.50
2019-04-04T07:54:58.139Z,20.23
2019-04-04T07:57:30.097Z,19.87
2019-04-04T07:59:59.015Z,21.07
2019-04-04T08:02:28.623Z,22.47
2019-04-04T08:04:58.196Z,20.87
2019-04-04T08:07:28.810Z,20.27
2019-04-04T08:09:58.743Z,21.40
2019-04-04T08:12:28.418Z,20.43
2019-04-04T08:14:58.015Z,19.97
2019-04-04T08:17:27.606Z,20.23
2019-04-04T08:19:59.918Z,18.50
2019-04-04T08:22:28.701Z,18.73
2019-04-04T08:24:58.286Z,19.93
2019-04-04T08:27:27.846Z,19.13
2019-04-04T08:29:57.608Z,19.30
2019-04-04T08:32:27.171Z,19.50
2019-04-04T08:34:56.757Z,19.67
2019-04-04T08:37:26.332Z,18.40
2019-04-04T08:39:55.933Z,17.67
2019-04-04T08:42:26.666Z,18.00
2019-04-04T08:44:56.218Z,17.20
2019-04-04T08:47:25.802Z,17.57
2019-04-04T08:49:55.374Z,18.47
2019-04-04T08:52:24.957Z,20.43
2019-04-04T08:54:54.665Z,20.37
2019-04-04T08:57:24.389Z,19.77
2019-04-04T08:59:53.952Z,20.07
2019-04-04T09:02:23.537Z,19.20
2019-04-04T09:04:53.095Z,19.50
2019-04-04T09:07:23.646Z,18.67
2019-04-04T09:09:53.297Z,19.27
2019-04-04T09:12:23.011Z,18.87
2019-04-04T09:14:52.642Z,20.67
2019-04-04T09:17:22.198Z,19.90
2019-04-04T09:19:51.806Z,20.03
2019-04-04T09:22:23.995Z,19.47
2019-04-04T09:24:53.650Z,19.80
2019-04-04T09:27:23.226Z,19.33
2019-04-04T09:29:52.779Z,21.20
2019-04-04T09:32:22.407Z,20.33
2019-04-04T09:34:51.982Z,19.57
2019-04-04T09:37:21.578Z,19.03
2019-04-04T09:39:51.166Z,17.33
2019-04-04T09:42:20.730Z,17.27
2019-04-04T09:44:50.365Z,16.05
2019-04-04T09:47:19.917Z,16.45
2019-04-04T09:49:49.491Z,17.35
2019-04-04T09:52:19.080Z,17.85
2019-04-04T09:54:48.650Z,17.17
2019-04-04T09:57:18.317Z,18.02
2019-04-04T09:59:47.906Z,16.73
2019-04-04T10:02:17.491Z,16.23
2019-04-04T10:04:47.092Z,16.20
2019-04-04T10:07:17.653Z,15.00
2019-04-04T10:09:47.257Z,13.95
2019-04-04T10:12:17.827Z,14.78
2019-04-04T10:14:47.402Z,15.00
2019-04-04T10:17:16.986Z,15.70
2019-04-04T10:19:46.558Z,15.78
2019-04-04T10:22:16.203Z,14.90
2019-04-04T10:24:45.755Z,14.07
2019-04-04T10:27:15.326Z,13.25
2019-04-04T10:29:44.909Z,13.00
2019-04-04T10:32:14.463Z,12.80
2019-04-04T10:34:45.181Z,13.30
2019-04-04T10:37:14.757Z,12.90
2019-04-04T10:39:44.346Z,13.30
2019-04-04T10:42:13.923Z,13.48
2019-04-04T10:44:43.493Z,12.15
2019-04-04T10:47:13.360Z,13.32
2019-04-04T10:50:02.342Z,12.55
2019-04-04T10:52:32.240Z,12.90
2019-04-04T10:55:01.886Z,13.60
2019-04-04T10:57:32.709Z,13.47
2019-04-04T11:00:03.306Z,12.53
2019-04-04T11:02:34.371Z,13.40
2019-04-04T11:05:04.079Z,12.97
2019-04-04T11:07:34.306Z,12.83
2019-04-04T11:10:05.232Z,11.57
2019-04-04T11:12:34.796Z,11.67
2019-04-04T11:15:05.992Z,14.03
2019-04-04T11:17:35.537Z,12.90
2019-04-04T11:20:06.229Z,12.57
2019-04-04T11:22:35.919Z,13.47
2019-04-04T11:25:05.501Z,14.43
2019-04-04T11:27:35.462Z,15.47
2019-04-04T11:30:08.041Z,13.70
2019-04-04T11:32:38.050Z,12.80
2019-04-04T11:35:07.611Z,10.47
2019-04-04T11:37:37.182Z,10.53
2019-04-04T11:40:07.761Z,10.07
2019-04-04T11:42:37.311Z,9.48
2019-04-04T11:45:06.934Z,9.40
2019-04-04T11:47:36.788Z,8.75
2019-04-04T11:50:07.511Z,9.38
2019-04-04T11:52:38.102Z,9.48
2019-04-04T11:55:07.694Z,9.50
2019-04-04T11:57:37.266Z,9.15
2019-04-04T12:00:07.823Z,9.43
2019-04-04T12:02:37.424Z,8.53
2019-04-04T12:05:07.759Z,8.53
2019-04-04T12:07:38.474Z,8.70
2019-04-04T12:10:08.550Z,8.80
2019-04-04T12:12:38.173Z,9.10
2019-04-04T12:15:08.865Z,9.03
2019-04-04T12:17:38.770Z,9.40
2019-04-04T12:20:08.368Z,9.03
2019-04-04T12:22:37.950Z,9.33
2019-04-04T12:25:07.590Z,9.30
2019-04-04T12:27:37.201Z,9.50
2019-04-04T12:30:07.753Z,9.30
2019-04-04T12:32:37.373Z,9.53
2019-04-04T12:35:06.959Z,8.90
2019-04-04T12:37:37.511Z,8.80
2019-04-04T12:40:20.028Z,9.07
2019-04-04T12:42:39.111Z,8.93
2019-04-04T12:45:09.652Z,8.53
2019-04-04T12:47:39.209Z,8.90
2019-04-04T12:50:09.496Z,8.93
2019-04-04T12:52:39.063Z,9.10
2019-04-04T12:55:08.646Z,9.83
2019-04-04T12:57:38.306Z,9.07
2019-04-04T13:00:08.876Z,9.23
2019-04-04T13:02:38.597Z,9.13
2019-04-04T13:05:08.677Z,9.33
2019-04-04T13:07:38.261Z,9.80
2019-04-04T13:10:11.730Z,10.13
2019-04-04T13:12:39.438Z,10.13
2019-04-04T13:15:09.151Z,10.10
2019-04-04T13:17:38.711Z,10.27
2019-04-04T13:20:08.295Z,10.27
2019-04-04T13:22:37.864Z,10.00
2019-04-04T13:25:08.758Z,10.33
2019-04-04T13:27:38.370Z,10.03
2019-04-04T13:30:09.997Z,9.77
2019-04-04T13:32:39.729Z,10.40
2019-04-04T13:35:09.570Z,10.17
2019-04-04T13:37:39.158Z,10.43
2019-04-04T13:40:08.731Z,10.60
2019-04-04T13:42:38.323Z,10.40
2019-04-04T13:45:07.942Z,10.80
2019-04-04T13:47:39.390Z,11.27
2019-04-04T13:50:08.715Z,10.37
2019-04-04T13:52:38.290Z,10.53
2019-04-04T13:55:07.882Z,11.00
2019-04-04T13:57:39.511Z,10.77
2019-04-04T14:00:09.243Z,10.37
2019-04-04T14:02:38.882Z,10.60
2019-04-04T14:05:10.019Z,10.70
2019-04-04T14:07:39.998Z,10.70
2019-04-04T14:10:09.572Z,10.17
2019-04-04T14:12:39.163Z,10.13
2019-04-04T14:15:09.848Z,11.00
2019-04-04T14:17:39.430Z,10.37
2019-04-04T14:20:09.551Z,11.00
2019-04-04T14:22:39.127Z,11.13
2019-04-04T14:25:08.714Z,11.23
2019-04-04T14:27:38.389Z,10.50
2019-04-04T14:30:07.958Z,11.00
2019-04-04T14:32:37.527Z,9.97
2019-04-04T14:35:07.915Z,11.10
2019-04-04T14:37:37.533Z,10.40
2019-04-04T14:40:07.219Z,9.37
2019-04-04T14:42:36.825Z,10.00
2019-04-04T14:45:06.671Z,11.43
2019-04-04T14:47:37.380Z,12.07
2019-04-04T14:50:07.354Z,10.80
2019-04-04T14:52:39.406Z,10.40
2019-04-04T14:55:08.140Z,9.83
2019-04-04T14:57:38.026Z,9.97
2019-04-04T15:00:10.780Z,9.90
2019-04-04T15:02:40.353Z,10.93
2019-04-04T15:05:10.080Z,10.27
2019-04-04T15:07:39.660Z,9.70
2019-04-04T15:10:09.246Z,9.30
2019-04-04T15:12:39.659Z,8.23
2019-04-04T15:15:09.226Z,9.10
2019-04-04T15:17:38.868Z,8.87
2019-04-04T15:20:08.449Z,8.10
2019-04-04T15:22:38.014Z,8.30
2019-04-04T15:25:07.678Z,8.17
2019-04-04T15:27:37.258Z,8.77
2019-04-04T15:30:07.466Z,9.20
2019-04-04T15:32:37.026Z,10.67
2019-04-04T15:35:06.590Z,13.33
2019-04-04T15:37:36.192Z,10.30
2019-04-04T15:40:06.757Z,10.60
2019-04-04T15:42:36.349Z,13.17
2019-04-04T15:45:06.742Z,16.03
2019-04-04T15:47:36.295Z,12.70
2019-04-04T15:50:07.194Z,12.33
2019-04-04T15:52:37.134Z,12.03
2019-04-04T15:55:06.737Z,11.97
2019-04-04T15:57:36.887Z,12.10
2019-04-04T16:00:07.391Z,12.43
2019-04-04T16:02:36.956Z,12.67
2019-04-04T16:05:07.259Z,11.43
2019-04-04T16:07:36.825Z,13.10
2019-04-04T16:10:06.702Z,12.40
2019-04-04T16:12:36.331Z,11.80
2019-04-04T16:15:07.102Z,11.97
2019-04-04T16:17:36.673Z,12.00
2019-04-04T16:20:09.019Z,12.60
2019-04-04T16:22:38.574Z,13.70
2019-04-04T16:25:08.351Z,13.40
2019-04-04T16:27:37.931Z,13.10
2019-04-04T16:30:08.612Z,15.97
2019-04-04T16:32:38.179Z,14.17
2019-04-04T16:35:07.752Z,12.70
2019-04-04T16:37:37.342Z,12.83
2019-04-04T16:40:09.125Z,13.03
2019-04-04T16:42:39.176Z,15.40
2019-04-04T16:45:09.051Z,21.83
2019-04-04T16:47:38.638Z,24.10
2019-04-04T16:50:10.166Z,16.83
2019-04-04T16:52:39.783Z,20.03
2019-04-04T16:55:09.348Z,15.20
2019-04-04T16:57:38.914Z,24.13
2019-04-04T17:00:13.097Z,19.13
2019-04-04T17:02:42.642Z,19.87
2019-04-04T17:05:12.219Z,24.90
2019-04-04T17:07:41.980Z,18.37
2019-04-04T17:10:12.286Z,17.10
2019-04-04T17:12:41.889Z,19.33
2019-04-04T17:15:11.436Z,18.00
2019-04-04T17:17:41.036Z,17.33
2019-04-04T17:20:10.629Z,16.23
2019-04-04T17:22:40.216Z,22.20
2019-04-04T17:25:10.211Z,21.23
2019-04-04T17:27:39.769Z,19.17
2019-04-04T17:30:09.412Z,24.23
2019-04-04T17:32:38.951Z,24.43
2019-04-04T17:35:08.710Z,45.03
2019-04-04T17:37:38.406Z,27.10
2019-04-04T17:40:08.404Z,34.90
2019-04-04T17:42:38.505Z,26.13
2019-04-04T17:45:08.163Z,27.83
2019-04-04T17:47:38.849Z,23.87
2019-04-04T17:50:09.692Z,18.03
2019-04-04T17:52:39.287Z,19.63
2019-04-04T17:55:08.862Z,22.53
2019-04-04T17:57:38.520Z,23.63
2019-04-04T18:00:08.409Z,22.77
2019-04-04T18:02:39.218Z,24.90
2019-04-04T18:05:10.462Z,25.57
2019-04-04T18:07:40.090Z,24.40
2019-04-04T18:10:10.566Z,21.70
2019-04-04T18:12:40.953Z,22.97
2019-04-04T18:15:10.935Z,22.80
2019-04-04T18:17:40.521Z,21.97
2019-04-04T18:20:10.151Z,24.03
2019-04-04T18:22:39.725Z,25.47
2019-04-04T18:25:09.331Z,26.93
2019-04-04T18:27:38.913Z,32.33
2019-04-04T18:30:10.967Z,32.40
2019-04-04T18:32:40.863Z,43.37
2019-04-04T18:35:10.664Z,47.93
2019-04-04T18:37:40.347Z,35.13
2019-04-04T18:40:09.916Z,44.80
2019-04-04T18:42:52.122Z,31.83
2019-04-04T18:45:10.727Z,47.13
2019-04-04T18:47:40.291Z,33.50
2019-04-04T18:50:09.939Z,28.30
2019-04-04T18:52:39.547Z,27.77
2019-04-04T18:55:19.116Z,26.63
2019-04-04T18:57:40.741Z,26.80
2019-04-04T19:00:11.886Z,27.07
2019-04-04T19:02:41.691Z,26.93
2019-04-04T19:05:11.287Z,27.67
2019-04-04T19:07:42.150Z,26.30
2019-04-04T19:10:11.697Z,25.73
2019-04-04T19:12:42.706Z,28.00
2019-04-04T19:15:12.292Z,26.77
2019-04-04T19:17:41.870Z,28.37
2019-04-04T19:20:11.803Z,28.23
2019-04-04T19:22:41.752Z,28.83
2019-04-04T19:25:13.740Z,27.90
2019-04-04T19:27:43.235Z,29.03
2019-04-04T19:30:14.527Z,28.37
2019-04-04T19:32:44.108Z,28.00
2019-04-04T19:38:09.477Z,40.67
2019-04-04T19:40:39.235Z,33.57
2019-04-04T19:43:17.850Z,33.40
2019-04-04T19:45:40.053Z,30.17
2019-04-04T19:48:09.626Z,37.90
2019-04-04T19:50:39.440Z,36.63
2019-04-04T19:53:09.227Z,37.77
2019-04-04T19:55:38.851Z,39.80
2019-04-04T19:58:08.467Z,35.17
2019-04-04T20:00:38.028Z,38.17
2019-04-04T20:03:07.684Z,38.03
2019-04-04T20:05:37.269Z,30.50
2019-04-04T20:08:07.946Z,29.07
2019-04-04T20:10:37.555Z,31.57
2019-04-04T20:13:07.114Z,32.50
2019-04-04T20:15:36.709Z,32.07
2019-04-04T20:18:06.276Z,34.97
2019-04-04T20:20:35.827Z,30.77
2019-04-04T20:23:05.427Z,33.00
2019-04-04T20:25:34.991Z,30.83
2019-04-04T20:28:04.586Z,32.20
2019-04-04T20:30:38.627Z,31.90
2019-04-04T20:33:09.064Z,30.53
2019-04-04T20:35:38.807Z,31.27
2019-04-04T20:38:08.363Z,32.97
2019-04-04T20:40:38.023Z,33.87
2019-04-04T20:43:07.601Z,33.87
2019-04-04T20:45:37.188Z,36.27
2019-04-04T20:48:06.786Z,34.57
2019-04-04T20:50:36.365Z,33.07
2019-04-04T20:53:05.942Z,33.80
2019-04-04T20:55:35.517Z,34.63
2019-04-04T20:58:05.267Z,34.37
2019-04-04T21:00:34.886Z,34.50
2019-04-04T21:03:04.450Z,34.13
2019-04-04T21:05:35.121Z,32.63
2019-04-04T21:08:04.707Z,34.33
2019-04-04T21:10:34.391Z,32.90
2019-04-04T21:13:04.024Z,32.17
2019-04-04T21:15:33.587Z,32.73
2019-04-04T21:18:03.237Z,33.17
2019-04-04T21:20:32.847Z,32.57
2019-04-04T21:23:02.383Z,32.43
2019-04-04T21:25:31.989Z,31.17
2019-04-04T21:28:01.707Z,30.93
2019-04-04T21:30:31.277Z,30.43
2019-04-04T21:33:00.862Z,30.10
2019-04-04T21:35:30.423Z,31.03
2019-04-04T21:38:00.030Z,30.40
2019-04-04T21:40:29.602Z,35.47
2019-04-04T21:42:59.166Z,39.50
2019-04-04T21:45:28.758Z,41.07
2019-04-04T21:47:58.337Z,35.07
2019-04-04T21:50:27.927Z,31.63
2019-04-04T21:52:57.508Z,32.70
2019-04-04T21:55:27.132Z,35.00
2019-04-04T21:57:56.692Z,37.10
2019-04-04T22:00:27.874Z,39.73
2019-04-04T22:02:58.991Z,38.10
2019-04-04T22:05:28.618Z,38.30
2019-04-04T22:07:58.172Z,38.37
2019-04-04T22:10:27.757Z,37.90
2019-04-04T22:12:57.345Z,33.20
2019-04-04T22:15:26.899Z,34.03
2019-04-04T22:17:56.515Z,33.43
2019-04-04T22:20:26.058Z,34.60
2019-04-04T22:22:55.630Z,33.17
2019-04-04T22:25:25.217Z,31.20
2019-04-04T22:27:54.806Z,27.87
2019-04-04T22:30:24.403Z,28.57
2019-04-04T22:32:53.979Z,28.03
2019-04-04T22:35:23.558Z,27.10
2019-04-04T22:37:53.127Z,30.30
2019-04-04T22:40:22.713Z,29.87
2019-04-04T22:42:52.354Z,29.27
2019-04-04T22:45:21.910Z,30.47
2019-04-04T22:47:51.570Z,28.97
2019-04-04T22:50:21.152Z,28.57
2019-04-04T22:52:50.737Z,28.20
2019-04-04T22:55:20.348Z,27.90
2019-04-04T22:57:49.898Z,27.67
2019-04-04T23:00:19.503Z,27.47
2019-04-04T23:02:49.213Z,28.90
2019-04-04T23:05:18.777Z,27.03
2019-04-04T23:07:48.394Z,28.93
2019-04-04T23:10:17.957Z,29.50
2019-04-04T23:12:48.890Z,29.90
2019-04-04T23:15:18.470Z,32.40
2019-04-04T23:17:48.030Z,31.93
2019-04-04T23:20:18.449Z,30.07
2019-04-04T23:22:53.101Z,30.10
2019-04-04T23:25:19.205Z,30.50
2019-04-04T23:27:48.794Z,29.57
2019-04-04T23:30:18.377Z,30.43
2019-04-04T23:32:47.983Z,28.53
2019-04-04T23:35:17.547Z,28.20
2019-04-04T23:37:47.114Z,27.77
2019-04-04T23:40:16.696Z,27.70
2019-04-04T23:42:46.253Z,27.73
2019-04-04T23:45:15.907Z,29.60
2019-04-04T23:47:45.465Z,29.27
2019-04-04T23:50:15.022Z,30.60
2019-04-04T23:52:44.601Z,31.40
2019-04-04T23:55:14.172Z,29.43
2019-04-04T23:57:44.644Z,27.13
